Time;durP1;ratioP1;P1;durP2;ratioP2;P2;SDS_P1;SDS_P2;PMS_P1;PMS_P2;Temp;Humidity;BMP_temperature;BMP_pressure;BME280_temperature;BME280_humidity;BME280_pressure;Samples;Min_cycle;Max_cycle;Signal;HPM_P1;HPM_P2
2022/01/28 00:04:50;;;;;;;16.60;8.00;;;3.50;99.90;;;;;;5110793;28;20377;-67
2022/01/28 00:07:16;;;;;;;16.23;7.90;;;3.40;99.90;;;;;;5100401;28;20418;-64
2022/01/28 00:09:41;;;;;;;14.27;7.77;;;3.50;99.90;;;;;;5089878;28;20418;-66
2022/01/28 00:12:08;;;;;;;22.37;9.53;;;3.90;99.90;;;;;;5089595;28;20887;-65
2022/01/28 00:15:03;;;;;;;19.85;9.32;;;3.60;99.90;;;;;;5090495;28;20386;-65
2022/01/28 00:18:34;;;;;;;17.83;7.90;;;3.70;99.90;;;;;;5089830;28;20456;-65
2022/01/28 00:39:31;;;;;;;17.50;8.30;;;3.80;99.90;;;;;;5089710;28;20463;-65
2022/01/28 00:41:56;;;;;;;17.48;8.00;;;3.80;99.90;;;;;;5090111;28;20382;-67
2022/01/28 00:44:22;;;;;;;16.52;8.35;;;3.80;99.90;;;;;;5088899;28;20382;-66
2022/01/28 00:46:48;;;;;;;15.13;7.50;;;3.80;99.90;;;;;;5089224;28;20426;-65
2022/01/28 00:49:13;;;;;;;14.73;7.50;;;3.80;99.90;;;;;;5079583;28;20465;-66
2022/01/28 00:51:39;;;;;;;18.55;8.50;;;3.70;99.90;;;;;;5076339;28;20494;-66
2022/01/28 00:54:04;;;;;;;14.20;7.30;;;3.70;99.90;;;;;;5068742;28;20396;-64
2022/01/28 00:56:34;;;;;;;14.07;6.57;;;3.70;99.90;;;;;;5068529;28;20841;-65
2022/01/28 00:58:59;;;;;;;20.08;7.30;;;3.70;99.90;;;;;;5069307;28;20392;-65
2022/01/28 01:01:29;;;;;;;17.03;7.90;;;3.80;99.90;;;;;;5068979;28;20398;-65
2022/01/28 01:03:55;;;;;;;15.93;7.47;;;3.70;99.90;;;;;;5069458;28;20379;-66
2022/01/28 01:06:21;;;;;;;15.23;8.00;;;3.70;99.90;;;;;;5068561;28;20538;-65
2022/01/28 01:08:47;;;;;;;16.10;7.35;;;3.60;99.90;;;;;;5069346;28;20860;-66
2022/01/28 01:11:12;;;;;;;14.57;7.47;;;3.60;99.90;;;;;;5068483;28;20450;-65
2022/01/28 01:13:40;;;;;;;15.27;7.53;;;3.40;99.90;;;;;;5069077;28;20388;-65
2022/01/28 01:16:07;;;;;;;17.75;7.38;;;3.40;99.90;;;;;;5087616;28;20418;-65
2022/01/28 01:18:55;;;;;;;16.55;7.97;;;3.30;99.90;;;;;;5105609;28;20477;-65
2022/01/28 01:21:24;;;;;;;15.30;6.70;;;3.30;99.90;;;;;;5089603;28;20468;-65
2022/01/28 01:23:53;;;;;;;14.23;7.13;;;3.20;99.90;;;;;;5089804;28;20508;-65
2022/01/28 01:26:27;;;;;;;16.15;8.75;;;3.20;99.90;;;;;;5088599;28;20455;-62
2022/01/28 01:28:52;;;;;;;16.90;8.10;;;3.20;99.90;;;;;;5089158;28;20759;-62
2022/01/28 01:31:19;;;;;;;18.73;8.93;;;4.30;99.90;;;;;;5088195;28;20420;-62
2022/01/28 01:34:11;;;;;;;18.67;9.30;;;3.10;99.90;;;;;;5089238;28;20397;-63
2022/01/28 01:36:37;;;;;;;15.63;7.88;;;3.10;99.90;;;;;;5089415;28;20382;-65
2022/01/28 01:39:07;;;;;;;16.35;8.90;;;3.70;99.90;;;;;;5092353;28;20742;-64
2022/01/28 01:41:49;;;;;;;18.25;8.55;;;3.10;99.90;;;;;;5101644;28;20892;-65
2022/01/28 01:52:21;;;;;;;18.33;8.20;;;3.50;99.90;;;;;;5071809;28;20911;-65
2022/01/28 01:54:50;;;;;;;16.27;8.43;;;4.10;99.90;;;;;;5072618;28;20411;-65
2022/01/28 01:57:16;;;;;;;14.70;7.90;;;3.00;99.90;;;;;;5071428;28;20764;-65
2022/01/28 01:59:42;;;;;;;17.02;8.18;;;3.00;99.90;;;;;;5072374;28;20381;-65
2022/01/28 02:02:09;;;;;;;16.48;8.23;;;2.90;99.90;;;;;;5071907;28;20414;-65
2022/01/28 02:04:35;;;;;;;17.35;8.50;;;2.90;99.90;;;;;;5072568;28;20382;-65
2022/01/28 02:07:02;;;;;;;17.88;8.52;;;2.90;99.90;;;;;;5071961;28;20533;-64
2022/01/28 02:09:27;;;;;;;19.40;9.13;;;3.00;99.90;;;;;;5071697;28;20482;-66
2022/01/28 02:11:53;;;;;;;17.83;7.77;;;2.90;99.90;;;;;;5072186;28;20499;-65
2022/01/28 02:14:19;;;;;;;15.98;7.93;;;3.00;99.90;;;;;;5071612;28;20380;-65
2022/01/28 02:16:45;;;;;;;18.27;8.75;;;3.00;99.90;;;;;;5072136;28;20415;-65
2022/01/28 02:19:11;;;;;;;17.52;8.63;;;2.90;99.90;;;;;;5104837;28;20391;-65
2022/01/28 02:21:43;;;;;;;18.93;8.40;;;2.90;99.90;;;;;;5103132;28;20471;-65
2022/01/28 02:24:10;;;;;;;18.23;8.60;;;2.90;99.90;;;;;;5092174;28;20378;-65
2022/01/28 02:26:37;;;;;;;18.30;8.88;;;2.90;99.90;;;;;;5092346;28;20389;-65
2022/01/28 02:29:12;;;;;;;16.00;8.45;;;2.90;99.90;;;;;;5091623;28;20443;-64
2022/01/28 02:31:37;;;;;;;18.33;8.70;;;2.90;99.90;;;;;;5092261;28;20413;-65
2022/01/28 02:34:05;;;;;;;17.50;8.30;;;2.80;99.90;;;;;;5091748;28;20382;-63
2022/01/28 02:36:31;;;;;;;17.83;8.20;;;2.90;99.90;;;;;;5092147;28;20448;-65
2022/01/28 02:39:00;;;;;;;17.63;9.00;;;2.90;99.90;;;;;;5085995;28;20394;-65
2022/01/28 02:41:31;;;;;;;17.35;8.60;;;2.80;99.90;;;;;;5082059;28;20874;-65
2022/01/28 02:46:27;;;;;;;19.35;8.98;;;2.70;99.90;;;;;;5090977;28;20381;-63
2022/01/28 02:49:01;;;;;;;20.00;8.52;;;2.70;99.90;;;;;;5091983;28;20401;-63
2022/01/28 02:51:27;;;;;;;16.48;7.95;;;2.70;99.90;;;;;;5090990;28;20410;-62
2022/01/28 02:53:59;;;;;;;17.45;8.55;;;2.80;99.90;;;;;;5091577;28;20427;-62
2022/01/28 02:56:37;;;;;;;16.40;7.70;;;2.80;99.90;;;;;;5097876;28;20429;-62
2022/01/28 02:59:04;;;;;;;21.27;9.70;;;2.80;99.90;;;;;;5112745;28;20841;-62
2022/01/28 03:01:30;;;;;;;16.88;8.02;;;2.80;99.90;;;;;;5112006;28;20372;-62
2022/01/28 03:03:56;;;;;;;15.57;7.77;;;2.80;99.90;;;;;;5089004;28;20467;-61
2022/01/28 03:06:22;;;;;;;17.30;8.18;;;2.90;99.90;;;;;;5076701;28;20418;-61
2022/01/28 03:08:57;;;;;;;17.35;8.43;;;2.90;99.90;;;;;;5074804;28;20419;-61
2022/01/28 03:11:41;;;;;;;19.48;8.43;;;2.90;99.90;;;;;;5070547;28;20407;-62
2022/01/28 03:14:16;;;;;;;17.23;8.50;;;3.00;99.90;;;;;;5068831;28;20396;-61
2022/01/28 03:17:11;;;;;;;16.55;8.50;;;3.10;99.90;;;;;;5070530;28;20473;-61
2022/01/28 03:19:46;;;;;;;15.63;8.45;;;3.10;99.90;;;;;;5070436;28;20478;-62
2022/01/28 03:22:12;;;;;;;19.58;9.25;;;4.10;99.90;;;;;;5069124;28;20388;-61
2022/01/28 03:24:40;;;;;;;19.27;8.65;;;3.20;99.90;;;;;;5070108;28;20388;-62
2022/01/28 03:27:11;;;;;;;16.08;8.10;;;3.20;99.90;;;;;;5069559;28;20924;-62
2022/01/28 03:29:37;;;;;;;18.77;9.00;;;3.20;99.90;;;;;;5069986;28;20376;-62
2022/01/28 03:32:03;;;;;;;16.07;8.43;;;3.30;99.90;;;;;;5070622;28;20934;-63
2022/01/28 03:34:28;;;;;;;16.08;8.20;;;3.20;99.90;;;;;;5070412;28;20429;-62
2022/01/28 03:36:56;;;;;;;18.70;7.78;;;3.20;99.90;;;;;;5070455;28;20430;-62
2022/01/28 03:39:22;;;;;;;19.00;7.70;;;3.30;99.90;;;;;;5069919;28;20380;-65
2022/01/28 03:41:47;;;;;;;15.33;7.03;;;3.40;99.90;;;;;;5070825;28;20845;-62
2022/01/28 03:44:13;;;;;;;16.85;8.13;;;3.40;99.90;;;;;;5070277;28;20368;-62
2022/01/28 03:46:39;;;;;;;18.67;8.27;;;3.30;99.90;;;;;;5070514;28;20415;-63
2022/01/28 03:49:05;;;;;;;15.00;7.07;;;4.10;99.90;;;;;;5070548;28;20761;-61
2022/01/28 03:51:30;;;;;;;16.58;8.15;;;3.40;99.90;;;;;;5081133;28;20759;-65
2022/01/28 03:53:57;;;;;;;14.00;7.78;;;3.50;99.90;;;;;;5090844;28;20782;-65
2022/01/28 03:56:22;;;;;;;14.15;7.25;;;3.50;99.90;;;;;;5089823;28;20383;-65
2022/01/28 03:58:48;;;;;;;23.25;8.25;;;3.50;99.90;;;;;;5090641;28;20934;-65
2022/01/28 04:01:22;;;;;;;13.93;7.33;;;3.40;99.90;;;;;;5089526;28;20374;-62
2022/01/28 04:04:12;;;;;;;17.70;8.60;;;3.40;99.90;;;;;;5090414;28;20717;-63
2022/01/28 04:12:17;;;;;;;18.40;8.98;;;4.40;99.90;;;;;;5065939;28;20429;-65
2022/01/28 04:14:58;;;;;;;21.43;8.87;;;3.30;99.90;;;;;;5090296;28;20393;-65
2022/01/28 04:17:24;;;;;;;17.00;7.93;;;3.30;99.90;;;;;;5089523;28;20741;-65
2022/01/28 04:19:50;;;;;;;18.05;9.45;;;3.20;99.90;;;;;;5090299;28;20856;-65
2022/01/28 04:22:16;;;;;;;16.10;8.20;;;3.20;99.90;;;;;;5089620;28;20382;-63
2022/01/28 04:24:42;;;;;;;20.33;9.43;;;3.10;99.90;;;;;;5090077;28;20439;-63
2022/01/28 04:27:08;;;;;;;18.20;8.50;;;3.10;99.90;;;;;;5089510;28;20851;-62
2022/01/28 04:29:34;;;;;;;19.33;9.13;;;3.10;99.90;;;;;;5077208;28;20921;-65
2022/01/28 04:32:00;;;;;;;19.20;9.45;;;3.10;99.90;;;;;;5089340;28;20425;-63
2022/01/28 04:34:26;;;;;;;19.50;9.23;;;3.10;99.90;;;;;;5079504;28;20389;-65
2022/01/28 04:39:36;;;;;;;21.60;9.45;;;3.00;99.90;;;;;;5089279;28;20396;-66
2022/01/28 04:42:20;;;;;;;20.25;9.75;;;3.00;99.90;;;;;;5090017;28;20390;-65
2022/01/28 04:47:22;;;;;;;21.38;9.70;;;2.90;99.90;;;;;;5089069;28;20417;-63
2022/01/28 05:03:05;;;;;;;23.65;10.55;;;2.70;99.90;;;;;;5089601;28;20498;-63
2022/01/28 05:06:08;;;;;;;22.33;9.30;;;2.80;99.90;;;;;;5088469;28;20463;-63
2022/01/28 05:29:00;;;;;;;22.20;11.57;;;2.60;99.90;;;;;;5093666;28;20390;-65
2022/01/28 05:31:27;;;;;;;22.67;10.07;;;2.60;99.90;;;;;;5087459;28;20413;-63
2022/01/28 05:33:52;;;;;;;23.45;10.93;;;2.60;99.90;;;;;;5078449;28;20415;-63
2022/01/28 05:36:19;;;;;;;21.98;10.50;;;2.60;99.90;;;;;;5076017;28;20374;-63
2022/01/28 05:38:44;;;;;;;24.75;10.57;;;2.60;99.90;;;;;;5094455;28;20397;-63
2022/01/28 05:41:10;;;;;;;24.63;10.57;;;2.60;99.90;;;;;;5090934;28;20466;-62
2022/01/28 05:43:36;;;;;;;21.27;9.85;;;2.60;99.90;;;;;;5088399;28;20400;-63
2022/01/28 05:46:01;;;;;;;21.75;10.40;;;2.60;99.90;;;;;;5088889;28;20406;-63
2022/01/28 05:48:27;;;;;;;20.60;10.60;;;2.70;99.90;;;;;;5091986;28;21044;-63
2022/01/28 05:50:52;;;;;;;21.65;10.32;;;2.70;99.90;;;;;;5090856;28;20425;-63
2022/01/28 05:53:18;;;;;;;22.52;10.52;;;2.70;99.90;;;;;;5092002;28;20385;-63
2022/01/28 05:55:44;;;;;;;21.80;9.97;;;2.70;99.90;;;;;;5092278;28;20378;-63
2022/01/28 05:58:09;;;;;;;22.63;10.18;;;2.70;99.90;;;;;;5091857;28;20378;-62
2022/01/28 06:00:35;;;;;;;20.70;10.00;;;2.70;99.90;;;;;;5091836;28;20416;-63
2022/01/28 06:03:01;;;;;;;21.93;11.20;;;2.80;99.90;;;;;;5092368;28;20528;-63
2022/01/28 06:05:30;;;;;;;18.77;9.88;;;2.80;99.90;;;;;;5091773;28;20484;-63
2022/01/28 06:07:57;;;;;;;30.60;10.38;;;2.80;99.90;;;;;;5092332;28;20381;-63
2022/01/28 06:10:23;;;;;;;21.63;10.77;;;2.80;99.90;;;;;;5091173;28;20378;-63
2022/01/28 06:12:48;;;;;;;28.15;10.80;;;2.80;99.90;;;;;;5092458;28;20686;-64
2022/01/28 06:15:14;;;;;;;23.50;11.17;;;2.70;99.90;;;;;;5105487;28;20731;-66
2022/01/28 06:17:40;;;;;;;22.80;10.30;;;4.00;99.90;;;;;;5097936;28;20408;-63
2022/01/28 06:20:08;;;;;;;23.33;10.65;;;2.80;99.90;;;;;;5097843;28;20458;-64
2022/01/28 06:22:38;;;;;;;24.88;11.93;;;2.80;99.90;;;;;;5101040;28;20380;-63
2022/01/28 06:25:04;;;;;;;23.60;11.35;;;2.80;99.90;;;;;;5092678;28;21093;-64
2022/01/28 06:27:30;;;;;;;25.43;11.47;;;2.90;99.90;;;;;;5088782;28;20469;-62
2022/01/28 06:29:56;;;;;;;23.37;11.80;;;2.90;99.90;;;;;;5086425;28;20481;-64
2022/01/28 06:32:22;;;;;;;21.98;10.35;;;2.80;99.90;;;;;;5082817;28;20460;-64
2022/01/28 06:34:47;;;;;;;23.98;11.10;;;2.80;99.90;;;;;;5091095;28;20379;-64
2022/01/28 06:37:13;;;;;;;25.57;10.63;;;2.70;99.90;;;;;;5077075;28;20390;-63
2022/01/28 06:39:38;;;;;;;23.80;10.45;;;3.60;99.90;;;;;;5070520;28;20399;-63
2022/01/28 06:42:05;;;;;;;25.07;10.80;;;2.60;99.90;;;;;;5070869;28;20829;-63
2022/01/28 06:44:31;;;;;;;25.50;11.55;;;2.50;99.90;;;;;;5077776;28;20415;-64
2022/01/28 06:46:57;;;;;;;24.20;12.20;;;2.90;99.90;;;;;;5070292;28;20396;-63
2022/01/28 06:49:23;;;;;;;26.23;11.50;;;2.50;99.90;;;;;;5070171;28;20453;-64
2022/01/28 06:51:48;;;;;;;26.30;11.53;;;2.50;99.90;;;;;;5070721;28;20469;-65
2022/01/28 06:54:14;;;;;;;25.27;11.70;;;2.50;99.90;;;;;;5085008;28;20496;-63
2022/01/28 06:56:40;;;;;;;27.90;12.18;;;2.50;99.90;;;;;;5071072;28;20472;-64
2022/01/28 06:59:05;;;;;;;21.70;10.40;;;2.60;99.90;;;;;;5070133;28;20861;-63
2022/01/28 07:01:31;;;;;;;27.43;11.77;;;3.80;99.90;;;;;;5069073;28;20471;-63
2022/01/28 07:03:57;;;;;;;23.48;10.20;;;2.70;99.90;;;;;;5071232;28;20887;-64
2022/01/28 07:06:23;;;;;;;20.95;10.05;;;2.70;99.90;;;;;;5072270;28;20403;-64
2022/01/28 07:08:49;;;;;;;24.50;10.57;;;2.80;99.90;;;;;;5069395;28;20407;-64
2022/01/28 07:11:15;;;;;;;20.65;10.88;;;2.80;99.90;;;;;;5069951;28;20412;-65
2022/01/28 07:13:40;;;;;;;20.08;8.73;;;2.90;99.90;;;;;;5073641;28;20409;-65
2022/01/28 07:16:06;;;;;;;21.20;10.30;;;2.90;99.90;;;;;;5071426;28;20395;-64
2022/01/28 07:18:32;;;;;;;21.98;9.80;;;3.00;99.90;;;;;;5070743;28;20548;-65
2022/01/28 07:20:58;;;;;;;21.95;9.85;;;3.00;99.90;;;;;;5071914;28;20426;-64
2022/01/28 07:23:23;;;;;;;22.77;11.17;;;3.00;99.90;;;;;;5071906;28;20428;-65
2022/01/28 07:25:49;;;;;;;21.10;9.73;;;3.00;99.90;;;;;;5069954;28;20880;-64
2022/01/28 07:28:15;;;;;;;23.40;10.88;;;3.10;99.90;;;;;;5069811;28;20395;-64
2022/01/28 07:30:40;;;;;;;21.73;10.27;;;3.10;99.90;;;;;;5074731;28;20408;-63
2022/01/28 07:33:08;;;;;;;22.23;9.83;;;3.20;99.90;;;;;;5072070;28;20419;-63
2022/01/28 07:35:34;;;;;;;22.90;9.37;;;3.20;99.90;;;;;;5069077;28;20502;-64
2022/01/28 07:38:00;;;;;;;20.60;9.68;;;3.30;99.90;;;;;;5085806;28;20370;-64
2022/01/28 07:40:26;;;;;;;19.73;9.53;;;3.40;99.90;;;;;;5076471;28;20527;-64
2022/01/28 07:42:52;;;;;;;21.67;9.63;;;3.40;99.90;;;;;;5083237;28;20919;-64
2022/01/28 07:45:18;;;;;;;20.90;9.70;;;3.40;99.90;;;;;;5077552;28;20415;-67
2022/01/28 07:47:44;;;;;;;19.17;9.40;;;3.40;99.90;;;;;;5083389;28;20872;-64
2022/01/28 07:50:12;;;;;;;22.65;9.63;;;3.70;99.90;;;;;;5087075;28;20390;-62
2022/01/28 07:52:38;;;;;;;17.75;8.98;;;3.50;99.90;;;;;;5089643;28;20986;-65
2022/01/28 07:55:09;;;;;;;19.15;9.10;;;3.60;99.90;;;;;;5088317;28;20493;-65
2022/01/28 07:57:35;;;;;;;19.77;9.20;;;3.70;99.90;;;;;;5092699;28;20390;-64
2022/01/28 08:00:01;;;;;;;18.40;8.87;;;3.80;99.90;;;;;;5075131;28;20402;-66
2022/01/28 08:02:27;;;;;;;20.70;9.70;;;3.70;99.90;;;;;;5087979;28;20473;-64
2022/01/28 08:04:53;;;;;;;18.23;8.10;;;3.80;99.90;;;;;;5085078;28;20395;-64
2022/01/28 08:07:21;;;;;;;16.58;7.72;;;4.10;99.90;;;;;;5075657;28;20450;-63
2022/01/28 08:09:47;;;;;;;16.88;7.63;;;3.90;99.90;;;;;;5097335;28;20418;-64
2022/01/28 08:12:13;;;;;;;16.73;7.80;;;3.80;99.90;;;;;;5086141;28;20446;-63
2022/01/28 08:14:38;;;;;;;17.73;7.55;;;3.90;99.90;;;;;;5087689;28;20430;-64
2022/01/28 08:17:04;;;;;;;18.25;8.80;;;3.90;99.90;;;;;;5080956;28;20468;-64
2022/01/28 08:19:30;;;;;;;18.17;8.17;;;4.10;99.90;;;;;;5094106;28;20517;-64
2022/01/28 08:21:56;;;;;;;15.70;7.25;;;4.10;99.90;;;;;;5084151;28;20403;-64
2022/01/28 08:24:21;;;;;;;15.85;7.30;;;4.20;99.90;;;;;;5078945;28;20374;-66
2022/01/28 08:26:47;;;;;;;16.30;7.73;;;4.40;99.90;;;;;;5089056;28;20382;-64
2022/01/28 08:29:13;;;;;;;15.83;7.37;;;4.50;99.90;;;;;;5090844;28;20414;-63
2022/01/28 08:31:38;;;;;;;15.45;7.93;;;4.50;99.90;;;;;;5074802;28;20402;-65
2022/01/28 08:34:04;;;;;;;16.70;7.60;;;4.40;99.90;;;;;;5074619;28;20401;-65
2022/01/28 08:36:30;;;;;;;19.70;7.07;;;4.40;99.90;;;;;;5098440;28;20561;-65
2022/01/28 08:38:56;;;;;;;16.25;6.90;;;4.30;99.90;;;;;;5090728;28;20568;-64
2022/01/28 08:41:23;;;;;;;14.77;7.57;;;5.20;99.90;;;;;;5085270;28;20402;-65
2022/01/28 08:43:49;;;;;;;14.82;7.30;;;4.30;99.90;;;;;;5084509;28;20887;-64
2022/01/28 08:46:15;;;;;;;16.25;7.70;;;4.40;99.90;;;;;;5089071;28;20436;-66
2022/01/28 08:48:40;;;;;;;15.63;7.57;;;4.40;99.90;;;;;;5088836;28;20423;-66
2022/01/28 08:51:06;;;;;;;15.70;7.70;;;4.50;99.90;;;;;;5084287;28;20473;-66
2022/01/28 08:53:33;;;;;;;17.13;7.40;;;4.50;99.90;;;;;;5070053;28;20396;-66
2022/01/28 08:55:59;;;;;;;17.10;7.10;;;4.50;99.90;;;;;;5082049;28;20386;-65
2022/01/28 08:58:25;;;;;;;14.95;7.00;;;4.50;99.90;;;;;;5083559;28;20406;-66
2022/01/28 09:00:51;;;;;;;16.03;7.20;;;4.60;99.90;;;;;;5078247;28;20411;-67
2022/01/28 09:03:19;;;;;;;18.88;7.68;;;4.70;99.90;;;;;;5087397;28;20735;-65
2022/01/28 09:05:45;;;;;;;14.75;6.38;;;5.60;99.90;;;;;;5083466;28;20459;-66
2022/01/28 09:08:11;;;;;;;16.83;7.00;;;4.80;99.90;;;;;;5088604;28;20465;-65
2022/01/28 09:10:43;;;;;;;15.17;6.97;;;4.90;99.90;;;;;;5086513;28;20555;-65
2022/01/28 09:15:40;;;;;;;15.07;6.43;;;5.80;99.90;;;;;;5085967;28;20403;-65
2022/01/28 09:18:07;;;;;;;14.82;7.00;;;5.00;99.90;;;;;;5089427;28;20434;-66
2022/01/28 09:20:34;;;;;;;13.82;6.65;;;5.20;99.90;;;;;;5088090;28;20781;-66
2022/01/28 09:23:01;;;;;;;17.27;6.15;;;5.30;99.90;;;;;;5088116;28;20771;-67
2022/01/28 09:25:27;;;;;;;15.23;6.28;;;5.40;99.90;;;;;;5087068;28;20883;-66
2022/01/28 09:27:53;;;;;;;12.27;5.95;;;5.50;99.90;;;;;;5088562;28;20383;-66
2022/01/28 09:30:19;;;;;;;13.25;7.32;;;5.70;99.90;;;;;;5088257;28;20520;-65
2022/01/28 09:32:45;;;;;;;14.98;5.57;;;5.90;99.90;;;;;;5089073;28;20840;-64
2022/01/28 09:35:11;;;;;;;14.80;6.10;;;6.90;99.90;;;;;;5088728;28;20389;-63
2022/01/28 09:37:37;;;;;;;14.47;6.20;;;5.60;99.90;;;;;;5087701;28;20374;-64
2022/01/28 09:40:04;;;;;;;18.25;6.43;;;6.10;99.90;;;;;;5088726;28;20378;-63
2022/01/28 09:42:33;;;;;;;15.73;6.30;;;6.10;99.90;;;;;;5089538;28;20522;-64
2022/01/28 09:45:01;;;;;;;13.37;5.80;;;6.80;99.90;;;;;;5088670;28;20804;-63
2022/01/28 09:47:27;;;;;;;12.70;5.82;;;6.20;99.90;;;;;;5087901;28;20402;-59
2022/01/28 09:49:54;;;;;;;17.10;5.80;;;6.00;99.90;;;;;;5089166;28;20851;-68
2022/01/28 09:52:19;;;;;;;12.50;5.60;;;6.00;99.90;;;;;;5087884;28;20404;-57
2022/01/28 09:54:46;;;;;;;14.50;5.67;;;6.00;99.90;;;;;;5078858;28;20396;-59
2022/01/28 09:57:17;;;;;;;13.10;6.15;;;6.10;99.90;;;;;;5069333;28;20452;-65
2022/01/28 09:59:43;;;;;;;13.68;6.13;;;7.40;99.90;;;;;;5073985;28;20387;-62
2022/01/28 10:02:09;;;;;;;14.32;5.82;;;6.00;99.90;;;;;;5087610;28;20777;-62
2022/01/28 10:04:35;;;;;;;12.37;5.60;;;6.00;99.90;;;;;;5075844;28;21202;-54
2022/01/28 10:07:13;;;;;;;14.90;5.50;;;6.10;99.90;;;;;;5077937;28;20443;-58
2022/01/28 10:09:56;;;;;;;17.23;5.60;;;6.00;99.90;;;;;;5076051;28;20380;-58
2022/01/28 10:12:31;;;;;;;11.53;5.87;;;5.90;99.90;;;;;;5086789;28;20455;-59
2022/01/28 10:15:05;;;;;;;13.43;5.47;;;5.90;99.90;;;;;;5086477;28;20378;-58
2022/01/28 10:17:53;;;;;;;13.05;6.10;;;6.50;99.90;;;;;;5084489;28;21052;-61
2022/01/28 10:20:20;;;;;;;13.10;5.63;;;6.10;99.90;;;;;;5089762;28;20407;-59
2022/01/28 10:23:01;;;;;;;13.60;6.30;;;6.20;99.90;;;;;;5080347;28;20426;-58
2022/01/28 10:25:34;;;;;;;14.45;6.22;;;6.30;99.90;;;;;;5073725;28;20482;-60
2022/01/28 10:28:11;;;;;;;12.82;5.60;;;6.40;99.90;;;;;;5086084;28;20382;-58
2022/01/28 10:30:40;;;;;;;12.00;5.75;;;6.50;99.90;;;;;;5074286;28;20852;-58
2022/01/28 10:33:20;;;;;;;13.68;7.00;;;6.50;99.90;;;;;;5071516;28;20380;-58
2022/01/28 10:35:54;;;;;;;13.13;5.90;;;7.40;99.90;;;;;;5074372;28;20749;-58
2022/01/28 10:38:34;;;;;;;12.60;4.55;;;7.60;99.90;;;;;;5072936;28;20825;-58
2022/01/28 10:41:13;;;;;;;12.10;4.70;;;8.10;99.90;;;;;;5073964;28;20422;-58
2022/01/28 10:43:44;;;;;;;14.88;5.32;;;8.50;99.90;;;;;;5086485;28;20386;-58
2022/01/28 10:46:10;;;;;;;10.98;4.43;;;8.60;99.90;;;;;;5084487;28;20390;-59
2022/01/28 10:49:03;;;;;;;13.38;4.82;;;8.40;99.90;;;;;;5082526;28;20390;-59
2022/01/28 10:51:43;;;;;;;11.85;4.88;;;8.10;99.90;;;;;;5081997;28;20411;-58
2022/01/28 10:54:11;;;;;;;12.88;4.80;;;8.70;99.90;;;;;;5084188;28;20382;-63
2022/01/28 10:56:47;;;;;;;12.95;4.40;;;8.70;99.90;;;;;;5087854;28;20787;-59
2022/01/28 10:59:15;;;;;;;9.77;4.03;;;8.30;99.90;;;;;;5085369;28;20473;-64
2022/01/28 11:01:42;;;;;;;11.88;5.07;;;7.80;99.90;;;;;;5086221;28;20932;-59
2022/01/28 11:04:11;;;;;;;11.98;4.50;;;7.40;99.90;;;;;;5086120;28;20378;-59
2022/01/28 11:06:38;;;;;;;11.43;5.13;;;7.40;99.90;;;;;;5086008;28;20386;-60
2022/01/28 11:09:03;;;;;;;12.30;5.85;;;7.70;99.90;;;;;;5086443;28;20386;-60
2022/01/28 11:11:29;;;;;;;13.15;5.43;;;7.90;99.90;;;;;;5087671;28;20412;-59
2022/01/28 11:13:57;;;;;;;13.02;5.75;;;8.10;99.90;;;;;;5081412;28;20391;-59
2022/01/28 11:16:23;;;;;;;16.88;6.53;;;8.10;99.90;;;;;;5078926;28;20386;-59
2022/01/28 11:18:49;;;;;;;15.38;5.80;;;8.00;99.90;;;;;;5077792;28;20465;-59
2022/01/28 11:21:17;;;;;;;16.75;5.18;;;8.00;99.90;;;;;;5070075;28;20380;-64
2022/01/28 11:24:13;;;;;;;13.20;4.93;;;8.40;99.90;;;;;;5070902;28;20449;-60
2022/01/28 11:26:54;;;;;;;14.55;5.18;;;8.00;99.90;;;;;;5083374;28;20392;-61
2022/01/28 11:29:26;;;;;;;12.20;5.33;;;7.60;99.90;;;;;;5069902;28;20372;-59
2022/01/28 11:31:54;;;;;;;9.00;4.22;;;7.40;99.90;;;;;;5075922;28;20467;-59
2022/01/28 11:34:26;;;;;;;10.80;4.55;;;8.50;99.90;;;;;;5089205;28;20385;-59
2022/01/28 11:37:02;;;;;;;12.85;5.68;;;6.70;99.90;;;;;;5090018;28;20389;-59
2022/01/28 11:39:32;;;;;;;15.32;5.60;;;6.70;99.90;;;;;;5089421;28;20374;-60
2022/01/28 11:42:06;;;;;;;16.85;6.63;;;6.40;99.90;;;;;;5088923;28;20413;-58
2022/01/28 11:44:45;;;;;;;12.93;5.10;;;6.40;99.90;;;;;;5071341;28;20418;-60
2022/01/28 11:47:23;;;;;;;11.93;5.10;;;6.40;99.90;;;;;;5089901;28;20501;-59
2022/01/28 11:49:58;;;;;;;15.68;6.20;;;6.50;99.90;;;;;;5084177;28;20409;-59
2022/01/28 11:52:30;;;;;;;13.15;5.75;;;6.90;99.90;;;;;;5084808;28;20433;-59
2022/01/28 11:55:16;;;;;;;14.50;5.80;;;6.90;99.90;;;;;;5085921;28;20760;-59
2022/01/28 11:58:08;;;;;;;16.85;6.35;;;7.00;99.90;;;;;;5084459;28;20424;-60
2022/01/28 12:00:36;;;;;;;13.27;5.90;;;6.90;99.90;;;;;;5080280;28;20374;-60
2022/01/28 12:03:18;;;;;;;10.82;4.85;;;7.20;99.90;;;;;;5085002;28;20418;-59
2022/01/28 12:05:43;;;;;;;11.98;4.80;;;6.90;99.90;;;;;;5084588;28;20795;-59
2022/01/28 12:08:11;;;;;;;15.75;5.60;;;7.30;99.90;;;;;;5084386;28;20413;-61
2022/01/28 12:10:41;;;;;;;15.83;5.70;;;7.90;99.90;;;;;;5085097;28;20477;-59
2022/01/28 12:13:12;;;;;;;12.35;4.85;;;8.30;99.90;;;;;;5081522;28;20483;-59
2022/01/28 12:16:01;;;;;;;11.70;4.85;;;8.50;99.90;;;;;;5076420;28;20408;-59
2022/01/28 12:18:45;;;;;;;12.75;5.45;;;7.50;99.90;;;;;;5080923;28;20404;-58
2022/01/28 12:21:16;;;;;;;15.35;5.30;;;7.20;99.90;;;;;;5071073;28;20391;-60
2022/01/28 12:23:44;;;;;;;14.57;5.03;;;7.00;99.90;;;;;;5081988;28;20404;-59
2022/01/28 12:26:13;;;;;;;15.15;6.45;;;6.90;99.90;;;;;;5083837;28;20826;-59
2022/01/28 12:28:44;;;;;;;11.35;4.72;;;6.90;99.90;;;;;;5085493;28;20374;-57
2022/01/28 12:31:13;;;;;;;13.70;6.18;;;6.90;99.90;;;;;;5075809;28;20439;-58
2022/01/28 12:33:41;;;;;;;17.40;5.60;;;7.10;99.90;;;;;;5069230;28;20384;-58
2022/01/28 12:36:10;;;;;;;13.25;5.97;;;7.20;99.90;;;;;;5085171;28;20440;-61
2022/01/28 12:38:43;;;;;;;18.10;5.90;;;7.20;99.90;;;;;;5082970;28;20471;-60
2022/01/28 12:41:12;;;;;;;12.80;5.30;;;7.10;99.90;;;;;;5084238;28;20386;-59
2022/01/28 12:43:38;;;;;;;13.05;5.68;;;7.00;99.90;;;;;;5085502;28;20390;-54
2022/01/28 12:46:12;;;;;;;13.68;5.95;;;6.70;99.90;;;;;;5075651;28;20746;-55
2022/01/28 12:48:53;;;;;;;13.18;5.60;;;6.40;99.90;;;;;;5083729;28;20865;-59
2022/01/28 12:51:21;;;;;;;16.42;5.82;;;6.30;99.90;;;;;;5075362;28;20403;-59
2022/01/28 12:53:53;;;;;;;15.43;5.03;;;6.10;99.90;;;;;;5070379;28;20437;-58
2022/01/28 12:56:30;;;;;;;11.25;5.35;;;5.90;99.90;;;;;;5068639;28;20402;-58
2022/01/28 12:58:55;;;;;;;16.13;6.80;;;5.90;99.90;;;;;;5081184;28;20438;-57
2022/01/28 13:01:21;;;;;;;15.73;6.82;;;6.00;99.90;;;;;;5084597;28;20439;-57
2022/01/28 13:03:56;;;;;;;14.40;6.80;;;6.00;99.90;;;;;;5085040;28;20394;-56
2022/01/28 13:06:42;;;;;;;14.65;6.05;;;5.90;99.90;;;;;;5084108;28;20410;-56
2022/01/28 13:09:19;;;;;;;15.02;6.90;;;5.80;99.90;;;;;;5085251;28;20382;-57
2022/01/28 13:11:56;;;;;;;19.00;8.57;;;5.70;99.90;;;;;;5085095;28;20492;-57
2022/01/28 13:14:29;;;;;;;15.52;6.82;;;5.80;99.90;;;;;;5084952;28;20386;-56
2022/01/28 13:16:55;;;;;;;16.17;7.32;;;6.00;99.90;;;;;;5086475;28;20479;-57
2022/01/28 13:19:21;;;;;;;15.82;7.30;;;5.70;99.90;;;;;;5084894;28;20461;-57
2022/01/28 13:21:50;;;;;;;14.10;6.45;;;6.20;99.90;;;;;;5085393;28;20424;-56
2022/01/28 13:24:22;;;;;;;16.10;7.28;;;6.30;99.90;;;;;;5082398;28;20382;-57
2022/01/28 13:27:06;;;;;;;16.58;7.50;;;6.40;99.90;;;;;;5084765;28;20416;-57
2022/01/28 13:29:41;;;;;;;16.05;7.63;;;6.70;99.90;;;;;;5084422;28;20390;-57
2022/01/28 13:32:08;;;;;;;16.02;7.45;;;7.00;99.90;;;;;;5085181;28;20818;-56
2022/01/28 13:34:48;;;;;;;17.42;7.35;;;7.10;99.90;;;;;;5080765;28;20400;-58
2022/01/28 13:37:40;;;;;;;18.25;7.95;;;6.60;99.90;;;;;;5087125;28;21207;-58
2022/01/28 13:40:12;;;;;;;15.23;7.68;;;6.20;99.90;;;;;;5088496;28;20410;-58
2022/01/28 13:43:03;;;;;;;18.60;8.33;;;6.10;99.90;;;;;;5087141;28;20386;-58
2022/01/28 13:45:31;;;;;;;15.50;8.57;;;6.10;99.90;;;;;;5085763;28;20493;-57
2022/01/28 13:47:59;;;;;;;20.17;9.77;;;6.20;99.90;;;;;;5087314;28;20513;-58
2022/01/28 13:50:49;;;;;;;15.30;7.20;;;6.40;99.90;;;;;;5088500;28;20385;-57
2022/01/28 13:55:59;;;;;;;15.93;7.50;;;6.00;99.90;;;;;;5084311;28;20437;-58
2022/01/28 13:58:26;;;;;;;14.77;6.90;;;6.00;99.90;;;;;;5085966;28;20401;-58
2022/01/28 14:00:53;;;;;;;18.95;7.75;;;5.90;99.90;;;;;;5089216;28;20471;-57
2022/01/28 14:03:24;;;;;;;17.73;7.10;;;5.90;99.90;;;;;;5088056;28;20386;-58
2022/01/28 14:06:01;;;;;;;18.05;7.50;;;5.90;99.90;;;;;;5087397;28;20378;-57
2022/01/28 14:08:51;;;;;;;17.15;6.57;;;6.00;99.90;;;;;;5085321;28;20458;-57
2022/01/28 14:11:33;;;;;;;14.48;7.32;;;7.00;99.90;;;;;;5087645;28;20413;-57
2022/01/28 14:14:35;;;;;;;17.48;8.20;;;6.10;99.90;;;;;;5086326;28;20394;-57
2022/01/28 14:17:05;;;;;;;15.43;6.72;;;6.00;99.90;;;;;;5087700;28;20410;-57
2022/01/28 14:19:32;;;;;;;15.15;7.57;;;6.00;99.90;;;;;;5088447;28;20897;-57
2022/01/28 14:21:59;;;;;;;17.70;7.80;;;6.10;99.90;;;;;;5087771;28;20386;-57